createdAt,value
2023-05-04T00:00:26.880Z,19.44
2023-05-04T00:02:56.713Z,19.42
2023-05-04T00:05:23.167Z,19.41
2023-05-04T00:07:49.505Z,19.40
2023-05-04T00:10:16.285Z,19.38
2023-05-04T00:12:42.633Z,19.38
2023-05-04T00:15:09.057Z,19.36
2023-05-04T00:17:35.630Z,19.36
2023-05-04T00:20:02.443Z,19.35
2023-05-04T00:25:32.304Z,19.33
2023-05-04T00:27:59.137Z,19.30
2023-05-04T00:30:26.240Z,19.28
2023-05-04T00:32:52.990Z,19.25
2023-05-04T00:35:23.175Z,19.19
2023-05-04T00:37:57.688Z,19.11
2023-05-04T00:40:24.443Z,19.05
2023-05-04T00:42:53.327Z,18.98
2023-05-04T00:45:20.646Z,18.91
2023-05-04T00:47:50.435Z,18.83
2023-05-04T00:53:10.348Z,18.72
2023-05-04T00:55:36.965Z,18.67
2023-05-04T00:58:06.796Z,18.61
2023-05-04T01:00:33.663Z,18.56
2023-05-04T01:03:01.248Z,18.50
2023-05-04T01:05:27.891Z,18.45
2023-05-04T01:08:00.941Z,18.40
2023-05-04T01:10:33.452Z,18.36
2023-05-04T01:13:00.837Z,18.30
2023-05-04T01:15:27.274Z,18.27
2023-05-04T01:17:53.867Z,18.22
2023-05-04T01:20:20.455Z,18.17
2023-05-04T01:22:46.884Z,18.13
2023-05-04T01:25:13.176Z,18.10
2023-05-04T01:27:39.552Z,18.05
2023-05-04T01:30:06.116Z,18.01
2023-05-04T01:32:32.876Z,17.96
2023-05-04T01:34:59.485Z,17.92
2023-05-04T01:37:25.800Z,17.89
2023-05-04T01:39:52.165Z,17.86
2023-05-04T01:42:18.458Z,17.84
2023-05-04T01:44:44.959Z,17.79
2023-05-04T01:47:11.375Z,17.77
2023-05-04T01:49:37.855Z,17.72
2023-05-04T01:52:04.762Z,17.69
2023-05-04T01:54:31.204Z,17.66
2023-05-04T01:56:57.723Z,17.62
2023-05-04T01:59:24.274Z,17.57
2023-05-04T02:01:50.873Z,17.55
2023-05-04T02:04:22.933Z,17.51
2023-05-04T02:06:50.747Z,17.47
2023-05-04T02:09:17.820Z,17.43
2023-05-04T02:11:44.151Z,17.40
2023-05-04T02:14:10.784Z,17.37
2023-05-04T02:16:37.472Z,17.34
2023-05-04T02:19:05.462Z,17.30
2023-05-04T02:21:34.346Z,17.26
2023-05-04T02:24:05.636Z,17.22
2023-05-04T02:26:32.553Z,17.18
2023-05-04T02:29:03.098Z,17.16
2023-05-04T02:31:34.325Z,17.12
2023-05-04T02:34:04.477Z,17.11
2023-05-04T02:36:31.077Z,17.07
2023-05-04T02:38:59.972Z,17.05
2023-05-04T02:41:27.165Z,17.02
2023-05-04T02:44:00.670Z,17.00
2023-05-04T02:46:30.806Z,16.96
2023-05-04T02:48:58.828Z,16.92
2023-05-04T02:51:27.707Z,16.88
2023-05-04T02:53:59.764Z,16.85
2023-05-04T02:56:34.231Z,16.81
2023-05-04T02:59:03.564Z,16.76
2023-05-04T03:01:35.157Z,16.74
2023-05-04T03:04:01.701Z,16.71
2023-05-04T03:06:28.035Z,16.67
2023-05-04T03:08:54.527Z,16.64
2023-05-04T03:11:24.074Z,16.60
2023-05-04T03:14:00.018Z,16.58
2023-05-04T03:16:27.400Z,16.53
2023-05-04T03:18:58.007Z,16.50
2023-05-04T03:21:28.480Z,16.47
2023-05-04T03:23:55.938Z,16.43
2023-05-04T03:26:23.225Z,16.41
2023-05-04T03:28:49.652Z,16.38
2023-05-04T03:31:16.375Z,16.36
2023-05-04T03:33:44.454Z,16.34
2023-05-04T03:36:12.604Z,16.32
2023-05-04T03:38:48.207Z,16.28
2023-05-04T03:41:23.752Z,16.27
2023-05-04T03:43:50.831Z,16.24
2023-05-04T03:46:17.201Z,16.22
2023-05-04T03:48:45.630Z,16.20
2023-05-04T03:51:14.732Z,16.17
2023-05-04T03:53:44.846Z,16.16
2023-05-04T03:56:14.725Z,16.14
2023-05-04T03:58:41.246Z,16.13
2023-05-04T04:01:08.559Z,16.12
2023-05-04T04:03:38.543Z,16.10
2023-05-04T04:06:08.628Z,16.08
2023-05-04T04:08:45.571Z,16.10
2023-05-04T04:11:25.208Z,16.10
2023-05-04T04:13:57.373Z,16.08
2023-05-04T04:16:33.178Z,16.07
2023-05-04T04:19:12.085Z,16.07
2023-05-04T04:21:38.422Z,16.09
2023-05-04T04:24:08.688Z,16.15
2023-05-04T04:26:37.779Z,16.17
2023-05-04T04:29:05.173Z,16.22
2023-05-04T04:31:35.096Z,16.29
2023-05-04T04:34:06.129Z,16.32
2023-05-04T04:36:35.830Z,16.34
2023-05-04T04:39:05.275Z,16.37
2023-05-04T04:41:37.763Z,16.42
2023-05-04T04:44:04.199Z,16.45
2023-05-04T04:46:30.645Z,16.46
2023-05-04T04:48:57.029Z,16.51
2023-05-04T04:51:23.945Z,16.59
2023-05-04T04:53:52.953Z,16.61
2023-05-04T04:56:20.765Z,16.66
2023-05-04T04:58:47.145Z,16.73
2023-05-04T05:01:22.124Z,16.80
2023-05-04T05:04:01.074Z,16.84
2023-05-04T05:06:31.349Z,16.88
2023-05-04T05:09:00.969Z,16.89
2023-05-04T05:11:32.209Z,16.95
2023-05-04T05:16:52.429Z,17.18
2023-05-04T05:19:25.462Z,17.27
2023-05-04T05:21:53.582Z,17.34
2023-05-04T05:24:21.743Z,17.42
2023-05-04T05:26:52.617Z,17.50
2023-05-04T05:29:28.905Z,17.58
2023-05-04T05:31:57.664Z,17.65
2023-05-04T05:34:33.442Z,17.68
2023-05-04T05:37:03.092Z,17.70
2023-05-04T05:39:31.519Z,17.76
2023-05-04T05:42:00.813Z,17.84
2023-05-04T05:44:32.935Z,17.90
2023-05-04T05:50:01.305Z,18.05
2023-05-04T05:52:34.833Z,18.16
2023-05-04T05:55:07.322Z,18.28
2023-05-04T05:57:48.790Z,18.41
2023-05-04T06:00:18.016Z,18.59
2023-05-04T06:02:46.332Z,18.71
2023-05-04T06:05:16.695Z,18.80
2023-05-04T06:08:01.353Z,18.87
2023-05-04T06:10:32.211Z,18.98
2023-05-04T06:13:02.812Z,19.05
2023-05-04T06:15:37.782Z,19.09
2023-05-04T06:18:08.618Z,19.14
2023-05-04T06:20:34.998Z,19.18
2023-05-04T06:23:24.452Z,19.26
2023-05-04T06:28:51.409Z,19.39
2023-05-04T06:31:21.064Z,19.42
2023-05-04T06:36:41.443Z,19.57
2023-05-04T06:39:12.257Z,19.68
2023-05-04T06:41:50.209Z,19.74
2023-05-04T06:44:50.076Z,19.85
2023-05-04T06:47:17.602Z,19.99
2023-05-04T06:49:45.466Z,20.04
2023-05-04T06:52:12.862Z,20.04
2023-05-04T06:54:45.903Z,20.03
2023-05-04T06:57:27.539Z,20.04
2023-05-04T07:00:07.640Z,20.05
2023-05-04T07:02:34.072Z,20.05
2023-05-04T07:05:00.676Z,20.05
2023-05-04T07:07:26.987Z,20.06
2023-05-04T07:09:53.533Z,20.11
2023-05-04T07:12:19.933Z,20.20
2023-05-04T07:14:46.421Z,20.27
2023-05-04T07:17:13.686Z,20.36
2023-05-04T07:19:51.772Z,20.46
2023-05-04T07:22:20.328Z,20.62
2023-05-04T07:24:48.174Z,20.83
2023-05-04T07:27:23.867Z,21.06
2023-05-04T07:29:50.292Z,21.29
2023-05-04T07:32:16.735Z,21.39
2023-05-04T07:34:46.283Z,21.37
2023-05-04T07:37:13.332Z,21.36
2023-05-04T07:39:39.643Z,21.35
2023-05-04T07:42:09.042Z,21.34
2023-05-04T07:44:35.525Z,21.34
2023-05-04T07:47:01.919Z,21.33
2023-05-04T07:49:51.690Z,21.36
2023-05-04T07:52:18.313Z,21.46
2023-05-04T07:54:44.763Z,21.59
2023-05-04T07:57:11.097Z,21.79
2023-05-04T07:59:37.478Z,21.92
2023-05-04T08:02:03.851Z,22.01
2023-05-04T08:04:30.276Z,22.18
2023-05-04T08:06:56.615Z,22.48
2023-05-04T08:09:23.242Z,22.65
2023-05-04T08:11:49.652Z,22.75
2023-05-04T08:14:16.055Z,22.94
2023-05-04T08:16:42.407Z,23.17
2023-05-04T08:19:09.187Z,23.34
2023-05-04T08:21:35.689Z,23.55
2023-05-04T08:24:02.156Z,23.94
2023-05-04T08:26:28.515Z,24.14
2023-05-04T08:28:54.897Z,24.36
2023-05-04T08:31:21.249Z,24.57
2023-05-04T08:33:47.632Z,24.76
2023-05-04T08:36:14.004Z,24.83
2023-05-04T08:38:40.346Z,24.39
2023-05-04T08:41:06.718Z,24.52
2023-05-04T08:43:33.136Z,24.51
2023-05-04T08:45:59.712Z,24.46
2023-05-04T08:48:26.150Z,24.42
2023-05-04T08:50:52.824Z,24.39
2023-05-04T08:53:20.482Z,24.33
2023-05-04T08:55:56.439Z,24.05
2023-05-04T08:58:23.147Z,23.39
2023-05-04T09:00:49.473Z,22.88
2023-05-04T09:03:16.131Z,22.63
2023-05-04T09:05:42.477Z,22.53
2023-05-04T09:08:08.797Z,22.45
2023-05-04T09:10:35.859Z,22.40
2023-05-04T09:13:02.374Z,22.36
2023-05-04T09:15:28.742Z,22.32
2023-05-04T09:20:23.182Z,22.28
2023-05-04T09:22:49.453Z,22.30
2023-05-04T09:25:15.767Z,22.32
2023-05-04T09:27:42.024Z,22.39
2023-05-04T09:30:08.295Z,22.40
2023-05-04T09:32:34.729Z,22.44
2023-05-04T09:35:01.034Z,22.44
2023-05-04T09:37:27.342Z,22.45
2023-05-04T09:39:54.075Z,22.45
2023-05-04T09:42:20.475Z,22.46
2023-05-04T09:44:47.206Z,22.50
2023-05-04T09:47:13.662Z,22.50
2023-05-04T09:49:40.004Z,22.55
2023-05-04T09:52:06.296Z,22.58
2023-05-04T09:54:32.612Z,22.60
2023-05-04T09:56:59.216Z,22.62
2023-05-04T09:59:25.479Z,22.63
2023-05-04T10:01:51.921Z,22.63
2023-05-04T10:04:18.359Z,22.63
2023-05-04T10:06:44.964Z,22.66
2023-05-04T10:09:11.359Z,22.70
2023-05-04T10:11:37.718Z,22.73
2023-05-04T10:14:07.187Z,22.76
2023-05-04T10:16:33.529Z,22.76
2023-05-04T10:19:00.164Z,22.78
2023-05-04T10:21:26.529Z,22.80
2023-05-04T10:23:53.312Z,22.80
2023-05-04T10:26:27.767Z,22.80
2023-05-04T10:28:56.837Z,22.83
2023-05-04T10:31:23.699Z,22.87
2023-05-04T10:33:50.332Z,22.90
2023-05-04T10:36:16.762Z,22.92
2023-05-04T10:38:43.541Z,22.92
2023-05-04T10:41:10.047Z,22.92
2023-05-04T10:43:36.476Z,22.92
2023-05-04T10:46:02.898Z,22.93
2023-05-04T10:48:29.339Z,22.91
2023-05-04T10:50:55.917Z,22.85
2023-05-04T10:53:22.273Z,22.84
2023-05-04T10:55:48.600Z,22.85
2023-05-04T10:58:15.072Z,22.88
2023-05-04T11:00:41.581Z,22.88
2023-05-04T11:03:08.007Z,22.90
2023-05-04T11:05:34.356Z,22.89
2023-05-04T11:08:00.938Z,22.90
2023-05-04T11:10:27.276Z,22.91
2023-05-04T11:12:53.621Z,22.91
2023-05-04T11:15:19.933Z,22.90
2023-05-04T11:17:46.293Z,22.91
2023-05-04T11:20:12.651Z,22.91
2023-05-04T11:22:38.936Z,22.93
2023-05-04T11:25:05.544Z,22.92
2023-05-04T11:27:32.076Z,22.90
2023-05-04T11:29:58.365Z,22.86
2023-05-04T11:32:29.143Z,22.84
2023-05-04T11:34:55.641Z,22.82
2023-05-04T11:37:21.933Z,22.84
2023-05-04T11:39:48.249Z,22.85
2023-05-04T11:42:14.589Z,22.86
2023-05-04T11:44:40.921Z,22.88
2023-05-04T11:47:07.239Z,22.89
2023-05-04T11:49:33.826Z,22.89
2023-05-04T11:52:00.315Z,22.84
2023-05-04T11:54:26.573Z,22.91
2023-05-04T11:56:53.001Z,22.91
2023-05-04T11:59:19.533Z,22.90
2023-05-04T12:01:47.080Z,22.92
2023-05-04T12:04:13.398Z,22.94
2023-05-04T12:06:39.759Z,22.95
2023-05-04T12:09:06.130Z,22.98
2023-05-04T12:11:32.602Z,22.99
2023-05-04T12:13:58.955Z,22.99
2023-05-04T12:16:25.413Z,23.00
2023-05-04T12:18:51.921Z,22.99
2023-05-04T12:21:18.175Z,22.99
2023-05-04T12:23:47.479Z,22.99
2023-05-04T12:26:14.251Z,22.96
2023-05-04T12:28:40.587Z,22.98
2023-05-04T12:31:06.996Z,23.00
2023-05-04T12:33:33.468Z,23.01
2023-05-04T12:36:00.047Z,23.00
2023-05-04T12:38:27.444Z,22.99
2023-05-04T12:40:54.149Z,23.00
2023-05-04T12:43:21.052Z,23.00
2023-05-04T12:45:47.455Z,23.01
2023-05-04T12:48:13.941Z,23.00
2023-05-04T12:50:40.310Z,23.02
2023-05-04T12:53:10.507Z,23.01
2023-05-04T12:55:39.618Z,23.02
2023-05-04T12:58:13.970Z,23.04
2023-05-04T13:00:40.725Z,23.03
2023-05-04T13:03:07.256Z,23.03
2023-05-04T13:05:36.421Z,23.02
2023-05-04T13:08:03.193Z,23.01
2023-05-04T13:10:30.972Z,23.03
2023-05-04T13:12:58.996Z,23.04
2023-05-04T13:15:25.479Z,23.04
2023-05-04T13:17:52.219Z,23.04
2023-05-04T13:20:18.615Z,23.05
2023-05-04T13:22:45.116Z,23.09
2023-05-04T13:25:11.716Z,23.11
2023-05-04T13:27:38.181Z,23.14
2023-05-04T13:30:04.560Z,23.15
2023-05-04T13:32:31.050Z,23.13
2023-05-04T13:34:57.470Z,23.14
2023-05-04T13:37:23.777Z,23.15
2023-05-04T13:39:50.381Z,23.14
2023-05-04T13:42:17.569Z,23.15
2023-05-04T13:44:53.666Z,23.17
2023-05-04T13:47:20.347Z,23.17
2023-05-04T13:49:46.892Z,23.17
2023-05-04T13:52:13.269Z,23.17
2023-05-04T13:54:39.570Z,23.10
2023-05-04T13:57:06.138Z,23.18
2023-05-04T13:59:32.796Z,23.16
2023-05-04T14:01:59.351Z,23.14
2023-05-04T14:04:27.835Z,23.12
2023-05-04T14:06:56.312Z,23.11
2023-05-04T14:09:22.642Z,23.10
2023-05-04T14:11:49.038Z,23.07
2023-05-04T14:14:15.463Z,23.05
2023-05-04T14:16:41.832Z,23.04
2023-05-04T14:19:13.998Z,23.05
2023-05-04T14:21:40.674Z,23.03
2023-05-04T14:24:07.076Z,23.01
2023-05-04T14:26:33.685Z,23.02
2023-05-04T14:29:00.205Z,23.01
2023-05-04T14:31:26.743Z,22.97
2023-05-04T14:33:55.283Z,22.97
2023-05-04T14:36:23.108Z,22.97
2023-05-04T14:38:49.651Z,22.99
2023-05-04T14:41:19.243Z,23.01
2023-05-04T14:43:45.646Z,23.05
2023-05-04T14:46:12.251Z,23.07
2023-05-04T14:48:38.649Z,23.09
2023-05-04T14:51:04.968Z,23.10
2023-05-04T14:53:31.264Z,23.12
2023-05-04T14:55:57.613Z,23.13
2023-05-04T14:58:23.943Z,23.15
2023-05-04T15:00:50.425Z,23.13
2023-05-04T15:03:17.074Z,23.14
2023-05-04T15:05:43.580Z,23.16
2023-05-04T15:08:09.869Z,23.15
2023-05-04T15:10:36.601Z,23.16
2023-05-04T15:13:02.895Z,23.16
2023-05-04T15:15:29.326Z,23.17
2023-05-04T15:17:55.789Z,23.17
2023-05-04T15:20:22.453Z,23.18
2023-05-04T15:22:48.791Z,23.19
2023-05-04T15:25:15.147Z,23.20
2023-05-04T15:27:41.453Z,23.21
2023-05-04T15:30:08.103Z,23.23
2023-05-04T15:32:34.658Z,23.23
2023-05-04T15:35:05.191Z,23.25
2023-05-04T15:37:32.644Z,23.26
2023-05-04T15:40:01.238Z,23.27
2023-05-04T15:42:28.825Z,23.28
2023-05-04T15:44:55.119Z,23.27
2023-05-04T15:47:21.410Z,23.28
2023-05-04T15:49:47.711Z,23.29
2023-05-04T15:52:13.970Z,23.28
2023-05-04T15:54:40.353Z,23.29
2023-05-04T15:57:06.645Z,23.29
2023-05-04T15:59:32.892Z,23.30
2023-05-04T16:01:59.214Z,23.31
2023-05-04T16:04:25.552Z,23.31
2023-05-04T16:06:52.107Z,23.30
2023-05-04T16:09:18.723Z,23.30
2023-05-04T16:11:45.294Z,23.30
2023-05-04T16:14:11.595Z,23.30
2023-05-04T16:16:38.029Z,23.30
2023-05-04T16:19:04.364Z,23.31
2023-05-04T16:21:30.764Z,23.30
2023-05-04T16:23:57.066Z,23.30
2023-05-04T16:26:23.366Z,23.30
2023-05-04T16:28:49.723Z,23.30
2023-05-04T16:31:16.151Z,23.29
2023-05-04T16:33:42.471Z,23.28
2023-05-04T16:36:08.812Z,23.28
2023-05-04T16:38:35.269Z,23.28
2023-05-04T16:41:01.792Z,23.28
2023-05-04T16:43:28.221Z,23.27
2023-05-04T16:45:54.651Z,23.27
2023-05-04T16:48:21.272Z,23.26
2023-05-04T16:50:47.569Z,23.25
2023-05-04T16:53:13.954Z,23.24
2023-05-04T16:55:40.199Z,23.24
2023-05-04T16:58:06.529Z,23.23
2023-05-04T17:00:32.909Z,23.23
2023-05-04T17:02:59.310Z,23.21
2023-05-04T17:05:25.822Z,23.20
2023-05-04T17:07:52.224Z,23.19
2023-05-04T17:10:18.591Z,23.18
2023-05-04T17:12:45.194Z,23.17
2023-05-04T17:15:11.619Z,23.15
2023-05-04T17:17:38.171Z,23.14
2023-05-04T17:20:04.729Z,23.13
2023-05-04T17:22:31.326Z,23.12
2023-05-04T17:24:57.761Z,23.11
2023-05-04T17:27:24.109Z,23.09
2023-05-04T17:29:50.460Z,23.07
2023-05-04T17:32:17.209Z,23.07
2023-05-04T17:34:43.815Z,23.05
2023-05-04T17:37:10.139Z,23.03
2023-05-04T17:39:36.638Z,23.02
2023-05-04T17:42:03.010Z,23.00
2023-05-04T17:44:29.491Z,22.99
2023-05-04T17:46:55.818Z,22.97
2023-05-04T17:49:22.145Z,22.95
2023-05-04T17:51:48.469Z,22.93
2023-05-04T17:54:14.861Z,22.92
2023-05-04T17:56:41.148Z,22.90
2023-05-04T17:59:07.462Z,22.87
2023-05-04T18:01:33.883Z,22.84
2023-05-04T18:04:00.566Z,22.84
2023-05-04T18:06:27.311Z,22.80
2023-05-04T18:08:53.893Z,22.78
2023-05-04T18:11:20.346Z,22.76
2023-05-04T18:13:46.849Z,22.73
2023-05-04T18:16:13.257Z,22.71
2023-05-04T18:18:39.685Z,22.70
2023-05-04T18:21:06.015Z,22.68
2023-05-04T18:23:32.506Z,22.66
2023-05-04T18:25:58.850Z,22.63
2023-05-04T18:28:25.134Z,22.62
2023-05-04T18:30:51.453Z,22.60
2023-05-04T18:33:17.758Z,22.57
2023-05-04T18:35:44.180Z,22.54
2023-05-04T18:38:10.584Z,22.52
2023-05-04T18:40:36.849Z,22.51
2023-05-04T18:43:03.180Z,22.48
2023-05-04T18:45:29.556Z,22.45
2023-05-04T18:47:55.909Z,22.45
2023-05-04T18:50:23.445Z,22.42
2023-05-04T18:52:51.030Z,22.41
2023-05-04T18:55:17.735Z,22.40
2023-05-04T18:57:44.038Z,22.37
2023-05-04T19:00:10.508Z,22.35
2023-05-04T19:02:37.045Z,22.33
2023-05-04T19:05:03.467Z,22.32
2023-05-04T19:07:30.021Z,22.30
2023-05-04T19:09:56.510Z,22.28
2023-05-04T19:12:22.942Z,22.27
2023-05-04T19:14:49.346Z,22.25
2023-05-04T19:17:15.855Z,22.23
2023-05-04T19:19:42.273Z,22.20
2023-05-04T19:22:08.747Z,22.19
2023-05-04T19:24:35.218Z,22.17
2023-05-04T19:27:01.541Z,22.16
2023-05-04T19:29:27.840Z,22.14
2023-05-04T19:31:54.371Z,22.12
2023-05-04T19:34:20.686Z,22.10
2023-05-04T19:36:46.987Z,22.07
2023-05-04T19:39:13.324Z,22.07
2023-05-04T19:41:39.773Z,22.05
2023-05-04T19:44:06.542Z,22.02
2023-05-04T19:46:32.876Z,22.01
2023-05-04T19:48:59.512Z,21.99
2023-05-04T19:51:25.983Z,21.96
2023-05-04T19:53:52.526Z,21.95
2023-05-04T19:56:19.851Z,21.92
2023-05-04T19:58:47.396Z,21.91
2023-05-04T20:01:13.742Z,21.89
2023-05-04T20:03:40.129Z,21.86
2023-05-04T20:06:06.412Z,21.83
2023-05-04T20:08:32.715Z,21.82
2023-05-04T20:10:59.033Z,21.80
2023-05-04T20:13:25.360Z,21.78
2023-05-04T20:15:52.968Z,21.77
2023-05-04T20:18:19.473Z,21.75
2023-05-04T20:20:46.868Z,21.72
2023-05-04T20:23:13.474Z,21.72
2023-05-04T20:25:39.806Z,21.71
2023-05-04T20:28:06.100Z,21.70
2023-05-04T20:30:32.447Z,21.69
2023-05-04T20:32:58.883Z,21.68
2023-05-04T20:35:25.228Z,21.67
2023-05-04T20:37:51.544Z,21.67
2023-05-04T20:40:17.952Z,21.65
2023-05-04T20:42:44.464Z,21.63
2023-05-04T20:45:10.771Z,21.63
2023-05-04T20:47:37.285Z,21.63
2023-05-04T20:50:03.753Z,21.61
2023-05-04T20:52:30.114Z,21.59
2023-05-04T20:54:56.543Z,21.58
2023-05-04T20:57:22.953Z,21.57
2023-05-04T20:59:49.324Z,21.56
2023-05-04T21:02:16.149Z,21.55
2023-05-04T21:04:42.470Z,21.54
2023-05-04T21:07:08.863Z,21.52
2023-05-04T21:09:38.202Z,21.52
2023-05-04T21:12:04.649Z,21.49
2023-05-04T21:14:31.089Z,21.48
2023-05-04T21:16:57.441Z,21.48
2023-05-04T21:19:23.853Z,21.46
2023-05-04T21:21:50.403Z,21.44
2023-05-04T21:24:16.788Z,21.43
2023-05-04T21:26:43.334Z,21.42
2023-05-04T21:29:10.151Z,21.40
2023-05-04T21:31:36.509Z,21.38
2023-05-04T21:34:03.022Z,21.38
2023-05-04T21:36:29.372Z,21.36
2023-05-04T21:38:55.862Z,21.34
2023-05-04T21:41:22.244Z,21.34
2023-05-04T21:43:48.662Z,21.32
2023-05-04T21:46:15.254Z,21.31
2023-05-04T21:48:41.792Z,21.30
2023-05-04T21:51:08.228Z,21.27
2023-05-04T21:53:34.667Z,21.28
2023-05-04T21:56:01.047Z,21.26
2023-05-04T21:58:27.464Z,21.24
2023-05-04T22:00:53.803Z,21.24
2023-05-04T22:03:20.215Z,21.23
2023-05-04T22:05:46.613Z,21.22
2023-05-04T22:08:14.240Z,21.21
2023-05-04T22:10:40.628Z,21.19
2023-05-04T22:13:07.118Z,21.18
2023-05-04T22:15:42.419Z,21.17
2023-05-04T22:18:13.197Z,21.16
2023-05-04T22:20:39.618Z,21.15
2023-05-04T22:23:05.954Z,21.12
2023-05-04T22:25:32.392Z,21.11
2023-05-04T22:27:58.744Z,21.09
2023-05-04T22:30:25.016Z,21.08
2023-05-04T22:32:51.346Z,21.07
2023-05-04T22:35:17.777Z,21.06
2023-05-04T22:37:44.141Z,21.05
2023-05-04T22:40:10.573Z,21.03
2023-05-04T22:42:36.998Z,21.02
2023-05-04T22:45:03.331Z,21.01
2023-05-04T22:47:29.663Z,21.00
2023-05-04T22:49:56.078Z,20.99
2023-05-04T22:52:22.379Z,20.97
2023-05-04T22:54:48.723Z,20.97
2023-05-04T22:57:15.218Z,20.96
2023-05-04T22:59:41.567Z,20.94
2023-05-04T23:02:08.121Z,20.92
2023-05-04T23:04:34.491Z,20.92
2023-05-04T23:07:00.837Z,20.91
2023-05-04T23:09:28.387Z,20.90
2023-05-04T23:11:54.728Z,20.88
2023-05-04T23:14:21.294Z,20.88
2023-05-04T23:16:47.963Z,20.87
2023-05-04T23:19:14.437Z,20.85
2023-05-04T23:21:40.840Z,20.85
2023-05-04T23:24:07.314Z,20.83
2023-05-04T23:26:33.802Z,20.83
2023-05-04T23:29:00.816Z,20.80
2023-05-04T23:31:27.188Z,20.79
2023-05-04T23:33:53.578Z,20.78
2023-05-04T23:36:19.986Z,20.77
2023-05-04T23:38:46.787Z,20.77
2023-05-04T23:41:13.081Z,20.76
2023-05-04T23:43:39.406Z,20.75
2023-05-04T23:46:08.619Z,20.73
2023-05-04T23:48:35.017Z,20.73
2023-05-04T23:51:01.457Z,20.72
2023-05-04T23:53:30.109Z,20.70
2023-05-04T23:55:56.573Z,20.69
2023-05-04T23:58:23.008Z,20.70
